Jackson Hole Airport
KJAC : now visible

Airfield :











YOU CAN JOIN US ON...

 
LOGIN :

Register | Disclaimer

   EN    FR    IT 

 









Legend :    VFR   Marginal VFR   IFR   Intensive IFR   Very Intensive IFR
Visi :
Ceiling :
>= 8 km
>= 3000ft
5 to 8 km
1000 to 3000 ft
1500m to 5 km
500 to 1000 ft
800 to 1500m
200 to 500 ft
< 800m
< 200 ft
Symbols :   Thunderstorms  Fog  Heavy snow  Heavy precipitations  Wind > 20 kt






- Airport Elevation : 6451 ft
- IATA code : JAC


KJAC - Jackson Hole

CURRENT METAR :
  • 220418Z AUTO 25007KT 9SM -SN FEW023 SCT030 OVC044 M01/M03 A2992 RMK AO2 P0000 FZRANO

EXPIRED METARs :
  • 220356Z AUTO 25009KT 9SM -SN BKN023 OVC031 M01/M03 A2992 RMK AO2 SLP186 P0000 T10111033 FZRANO
  • 220256Z 24008KT 8SM -SN OVC041 M01/M04 A2992 RMK AO2 SNB12 SLP187 P0000 60000 T10111039 58000
  • 220156Z 25005KT 10SM OVC042 M01/M04 A2993 RMK AO2 SLP190 T10111039

TAF KJAC
Valid from the 22 at 00:00 until the 23 at 00:00 UTC


212320Z 2200/2224 VRB05KT P6SM VCSH SCT025 BKN040
TEMPO 2200/2202 4SM -SN BKN025
FM220200 19008KT 6SM -SN BR SCT025 OVC035
FM220500 19007KT 1 1/2SM -SN OVC018
FM221500 20007KT 4SM -SN SCT015 OVC025
FM221800 20011KT P6SM VCSH SCT024 OVC035



MET'MAP, your aeronautical weather chart ! - Copyright ORBIFLY December 2007 - Disclaimer

ORBIFLY MET'MAP TEAM :

Programming & Development : Alexandra Zaïnal
Concept & original design : Baudouin d'Aumeries
Assistance for programming : Marc-Olivier Méhu
Technical & hardware support : Manuel Goepfert

Contact : metmap@orbifly.com




SOURCES & CREDITS :

   NOAA       Earth
Advisory